Time;durP1;ratioP1;P1;durP2;ratioP2;P2;SDS_P1;SDS_P2;PMS_P1;PMS_P2;Temp;Humidity;BMP_temperature;BMP_pressure;BME280_temperature;BME280_humidity;BME280_pressure;Samples;Min_cycle;Max_cycle;Signal;HPM_P1;HPM_P2
2021/11/28 00:01:53;;;;;;;8.60;4.23;;;;;;;;;;4993750;28;20219;-51
2021/11/28 00:04:20;;;;;;;10.70;5.32;;;;;;;;;;4994993;28;20452;-49
2021/11/28 00:07:06;;;;;;;11.88;5.63;;;;;;;;;;4998217;28;20709;-51
2021/11/28 00:14:46;;;;;;;8.07;5.00;;;;;;;;;;4997089;28;20231;-52
2021/11/28 00:17:13;;;;;;;8.45;5.78;;;;;;;;;;4996353;28;20166;-50
2021/11/28 00:19:40;;;;;;;10.50;5.25;;;;;;;;;;4996353;28;20173;-51
2021/11/28 00:22:06;;;;;;;16.63;4.75;;;;;;;;;;4996898;28;20201;-50
2021/11/28 00:24:32;;;;;;;5.32;4.70;;;;;;;;;;4996324;28;20199;-51
2021/11/28 00:26:58;;;;;;;9.70;4.80;;;;;;;;;;4996354;28;20204;-51
2021/11/28 00:29:24;;;;;;;7.47;4.03;;;;;;;;;;4996242;28;20643;-50
2021/11/28 00:31:50;;;;;;;7.90;4.75;;;;;;;;;;4996001;28;20189;-50
2021/11/28 00:34:16;;;;;;;7.55;5.18;;;;;;;;;;4996131;28;20183;-51
2021/11/28 00:36:42;;;;;;;7.93;4.65;;;;;;;;;;4996000;28;20169;-50
2021/11/28 00:39:08;;;;;;;8.60;5.13;;;;;;;;;;4995056;28;20659;-50
2021/11/28 00:41:34;;;;;;;7.40;4.23;;;;;;;;;;4995184;28;20428;-51
2021/11/28 00:44:00;;;;;;;9.02;4.30;;;;;;;;;;4996315;28;20447;-50
2021/11/28 00:46:26;;;;;;;7.07;4.77;;;;;;;;;;4996413;28;20203;-49
2021/11/28 00:48:53;;;;;;;5.93;4.60;;;;;;;;;;4996429;28;20882;-49
2021/11/28 00:53:46;;;;;;;10.67;4.50;;;;;;;;;;4996480;28;20239;-50
2021/11/28 00:56:12;;;;;;;8.13;3.95;;;;;;;;;;4996497;28;20401;-51
2021/11/28 00:58:38;;;;;;;7.78;5.30;;;;;;;;;;4996603;28;20570;-50
2021/11/28 01:01:04;;;;;;;8.73;5.43;;;;;;;;;;4996432;28;20627;-52
2021/11/28 01:03:30;;;;;;;7.88;5.00;;;;;;;;;;4995833;28;20173;-51
2021/11/28 01:05:56;;;;;;;7.60;4.83;;;;;;;;;;4997019;28;20169;-50
2021/11/28 01:08:22;;;;;;;5.70;4.63;;;;;;;;;;4996651;28;20411;-51
2021/11/28 01:10:49;;;;;;;5.60;4.77;;;;;;;;;;4996902;28;20468;-49
2021/11/28 01:13:17;;;;;;;6.60;4.45;;;;;;;;;;4995758;28;20400;-50
2021/11/28 01:15:43;;;;;;;6.25;4.57;;;;;;;;;;4996041;28;20259;-50
2021/11/28 01:18:09;;;;;;;8.40;4.32;;;;;;;;;;4995533;28;20174;-50
2021/11/28 01:20:35;;;;;;;7.43;4.68;;;;;;;;;;4996141;28;20567;-50
2021/11/28 01:23:01;;;;;;;8.93;4.70;;;;;;;;;;4995886;28;20177;-51
2021/11/28 01:25:27;;;;;;;7.88;4.90;;;;;;;;;;4995413;28;20443;-51
2021/11/28 01:27:53;;;;;;;7.03;4.43;;;;;;;;;;4995753;28;20251;-50
2021/11/28 01:30:19;;;;;;;7.40;5.03;;;;;;;;;;4995489;28;20222;-51
2021/11/28 01:32:45;;;;;;;17.17;4.38;;;;;;;;;;4978241;28;20412;-50
2021/11/28 01:35:13;;;;;;;6.95;4.47;;;;;;;;;;4995052;28;20172;-50
2021/11/28 01:37:39;;;;;;;9.43;5.47;;;;;;;;;;4995315;28;20255;-51
2021/11/28 01:40:06;;;;;;;8.85;4.70;;;;;;;;;;4994667;28;20192;-51
2021/11/28 01:42:36;;;;;;;8.38;4.45;;;;;;;;;;4994862;28;20220;-50
2021/11/28 01:45:02;;;;;;;6.45;4.38;;;;;;;;;;4994725;28;20223;-49
2021/11/28 01:47:28;;;;;;;5.15;4.18;;;;;;;;;;4994830;28;20168;-50
2021/11/28 01:49:54;;;;;;;9.30;5.07;;;;;;;;;;4994145;28;20494;-52
2021/11/28 01:52:20;;;;;;;6.10;4.70;;;;;;;;;;4994124;28;20404;-51
2021/11/28 01:54:46;;;;;;;5.67;4.50;;;;;;;;;;4993769;28;20409;-50
2021/11/28 01:57:12;;;;;;;6.70;4.40;;;;;;;;;;4993454;28;20903;-50
2021/11/28 01:59:38;;;;;;;6.03;5.00;;;;;;;;;;4993645;28;20407;-50
2021/11/28 02:02:04;;;;;;;10.17;5.37;;;;;;;;;;4993741;28;20420;-50
2021/11/28 02:04:30;;;;;;;8.18;5.10;;;;;;;;;;4993716;28;20471;-50
2021/11/28 02:06:57;;;;;;;5.28;4.50;;;;;;;;;;4993839;28;20195;-51
2021/11/28 02:09:23;;;;;;;7.70;5.05;;;;;;;;;;4993525;28;20171;-50
2021/11/28 02:11:49;;;;;;;11.95;4.70;;;;;;;;;;4994228;28;20192;-50
2021/11/28 02:14:15;;;;;;;7.40;4.63;;;;;;;;;;4994035;28;20448;-51
2021/11/28 02:16:42;;;;;;;7.88;5.53;;;;;;;;;;4997608;28;20980;-50
2021/11/28 02:19:08;;;;;;;6.72;5.45;;;;;;;;;;4997936;28;20173;-50
2021/11/28 02:21:34;;;;;;;7.75;5.43;;;;;;;;;;4998095;28;20275;-51
2021/11/28 02:24:00;;;;;;;9.32;5.97;;;;;;;;;;4997949;28;20199;-51
2021/11/28 02:26:27;;;;;;;8.37;5.03;;;;;;;;;;4998113;28;20640;-50
2021/11/28 02:28:53;;;;;;;6.85;4.78;;;;;;;;;;4997646;28;20408;-50
2021/11/28 02:31:19;;;;;;;8.90;4.80;;;;;;;;;;4997433;28;20192;-51
2021/11/28 02:33:46;;;;;;;6.28;5.20;;;;;;;;;;4997418;28;20495;-50
2021/11/28 02:36:12;;;;;;;7.50;4.70;;;;;;;;;;4997651;28;20594;-51
2021/11/28 02:38:38;;;;;;;6.90;4.60;;;;;;;;;;4997484;28;20210;-51
2021/11/28 02:41:04;;;;;;;8.00;6.65;;;;;;;;;;4996791;28;20518;-51
2021/11/28 02:43:33;;;;;;;11.95;6.18;;;;;;;;;;4996869;28;20169;-49
2021/11/28 02:46:01;;;;;;;6.93;5.03;;;;;;;;;;4997034;28;20212;-50
2021/11/28 02:48:27;;;;;;;8.15;5.53;;;;;;;;;;4997051;28;20162;-50
2021/11/28 02:50:53;;;;;;;8.30;5.03;;;;;;;;;;4996689;28;20255;-51
2021/11/28 02:53:19;;;;;;;12.13;5.35;;;;;;;;;;4996700;28;20424;-50
2021/11/28 02:55:46;;;;;;;5.23;4.60;;;;;;;;;;4996995;28;20175;-51
2021/11/28 02:58:13;;;;;;;5.55;4.50;;;;;;;;;;4996832;28;20408;-51
2021/11/28 03:00:42;;;;;;;7.20;5.22;;;;;;;;;;4996328;28;20257;-51
2021/11/28 03:03:08;;;;;;;9.57;5.43;;;;;;;;;;4996451;28;20181;-50
2021/11/28 03:05:36;;;;;;;6.23;5.17;;;;;;;;;;4996274;28;20201;-50
2021/11/28 03:08:02;;;;;;;15.95;6.20;;;;;;;;;;4996324;28;20403;-49
2021/11/28 03:10:32;;;;;;;6.82;5.60;;;;;;;;;;4995613;28;20703;-49
2021/11/28 03:12:58;;;;;;;8.38;5.10;;;;;;;;;;4995794;28;20166;-49
2021/11/28 03:15:24;;;;;;;7.25;5.00;;;;;;;;;;4995640;28;20637;-49
2021/11/28 03:17:50;;;;;;;10.85;4.90;;;;;;;;;;4995828;28;20256;-50
2021/11/28 03:20:17;;;;;;;7.57;4.68;;;;;;;;;;4995565;28;20185;-50
2021/11/28 03:22:47;;;;;;;9.40;5.18;;;;;;;;;;4995601;28;20173;-49
2021/11/28 03:25:13;;;;;;;11.52;5.30;;;;;;;;;;4995380;28;20284;-49
2021/11/28 03:27:39;;;;;;;7.47;5.32;;;;;;;;;;4994824;28;20182;-50
2021/11/28 03:30:06;;;;;;;9.18;6.20;;;;;;;;;;4995240;28;20185;-49
2021/11/28 03:32:32;;;;;;;8.40;5.82;;;;;;;;;;4995443;28;20649;-47
2021/11/28 03:34:57;;;;;;;11.77;7.20;;;;;;;;;;4995294;28;20172;-47
2021/11/28 03:37:23;;;;;;;12.30;5.93;;;;;;;;;;4995707;28;20855;-47
2021/11/28 03:39:50;;;;;;;6.70;5.45;;;;;;;;;;4995199;28;20408;-49
2021/11/28 03:42:15;;;;;;;7.43;5.80;;;;;;;;;;4995531;28;20181;-47
2021/11/28 03:44:41;;;;;;;5.83;4.73;;;;;;;;;;4995223;28;20207;-47
2021/11/28 03:47:07;;;;;;;7.73;4.47;;;;;;;;;;4995749;28;20397;-49
2021/11/28 03:49:34;;;;;;;4.63;4.20;;;;;;;;;;4995282;28;20412;-49
2021/11/28 03:52:00;;;;;;;9.63;5.07;;;;;;;;;;4995197;28;20263;-47
2021/11/28 03:54:26;;;;;;;8.05;5.88;;;;;;;;;;4995382;28;20180;-48
2021/11/28 03:56:53;;;;;;;11.18;5.20;;;;;;;;;;4995296;28;20172;-48
2021/11/28 03:59:19;;;;;;;9.43;5.15;;;;;;;;;;4995064;28;20533;-49
2021/11/28 04:01:46;;;;;;;7.45;5.72;;;;;;;;;;4994658;28;20193;-47
2021/11/28 04:04:12;;;;;;;6.70;5.63;;;;;;;;;;4994947;28;20190;-48
2021/11/28 04:06:38;;;;;;;8.23;5.45;;;;;;;;;;4995010;28;20272;-47
2021/11/28 04:09:08;;;;;;;5.32;4.82;;;;;;;;;;4994884;28;20248;-47
2021/11/28 04:11:34;;;;;;;8.75;5.10;;;;;;;;;;4994705;28;20223;-47
2021/11/28 04:14:00;;;;;;;5.97;5.25;;;;;;;;;;4994818;28;20180;-47
2021/11/28 04:16:26;;;;;;;6.03;5.53;;;;;;;;;;4994531;28;20169;-50
2021/11/28 04:18:52;;;;;;;6.00;5.15;;;;;;;;;;4994669;28;20172;-49
2021/11/28 04:21:18;;;;;;;9.45;4.70;;;;;;;;;;4994726;28;20189;-48
2021/11/28 04:23:45;;;;;;;7.00;4.90;;;;;;;;;;4994651;28;20270;-47
2021/11/28 04:26:11;;;;;;;9.93;5.47;;;;;;;;;;4994803;28;20495;-48
2021/11/28 04:28:38;;;;;;;6.20;5.00;;;;;;;;;;4994814;28;20204;-48
2021/11/28 04:31:04;;;;;;;8.32;4.68;;;;;;;;;;4994703;28;20427;-49
2021/11/28 04:33:30;;;;;;;5.10;4.53;;;;;;;;;;4995143;28;20176;-50
2021/11/28 04:35:56;;;;;;;8.52;5.05;;;;;;;;;;4994948;28;20179;-49
2021/11/28 04:38:22;;;;;;;9.03;5.07;;;;;;;;;;4995165;28;20264;-50
2021/11/28 04:40:48;;;;;;;11.27;5.03;;;;;;;;;;4994693;28;20424;-49
2021/11/28 04:43:14;;;;;;;5.43;4.15;;;;;;;;;;4995759;28;20408;-48
2021/11/28 04:45:40;;;;;;;5.85;4.47;;;;;;;;;;4994821;28;20210;-48
2021/11/28 04:48:06;;;;;;;6.43;5.30;;;;;;;;;;4995061;28;20171;-48
2021/11/28 04:50:32;;;;;;;6.03;4.55;;;;;;;;;;4994590;28;20423;-48
2021/11/28 04:53:16;;;;;;;6.70;5.10;;;;;;;;;;4994264;28;20185;-47
2021/11/28 04:55:42;;;;;;;6.60;5.13;;;;;;;;;;4994315;28;20180;-48
2021/11/28 04:58:08;;;;;;;10.27;5.85;;;;;;;;;;4994488;28;20176;-50
2021/11/28 05:00:34;;;;;;;6.50;4.87;;;;;;;;;;4994317;28;20189;-49
2021/11/28 05:03:00;;;;;;;6.50;4.88;;;;;;;;;;4994411;28;20404;-47
2021/11/28 05:05:26;;;;;;;8.90;5.32;;;;;;;;;;4993998;28;20216;-49
2021/11/28 05:07:53;;;;;;;9.13;5.07;;;;;;;;;;4994377;28;20175;-49
2021/11/28 05:10:19;;;;;;;6.22;4.28;;;;;;;;;;4994008;28;20185;-47
2021/11/28 05:12:45;;;;;;;7.20;5.35;;;;;;;;;;4994015;28;20252;-49
2021/11/28 05:15:11;;;;;;;7.03;5.30;;;;;;;;;;4994061;28;20180;-49
2021/11/28 05:17:37;;;;;;;8.15;5.60;;;;;;;;;;4993931;28;20197;-47
2021/11/28 05:20:04;;;;;;;8.77;5.43;;;;;;;;;;4993729;28;20683;-49
2021/11/28 05:22:30;;;;;;;7.80;5.65;;;;;;;;;;4993650;28;20408;-48
2021/11/28 05:24:56;;;;;;;6.32;4.78;;;;;;;;;;4993797;28;20232;-48
2021/11/28 05:27:23;;;;;;;16.40;6.30;;;;;;;;;;4993856;28;20629;-48
2021/11/28 05:29:49;;;;;;;7.47;5.40;;;;;;;;;;4993823;28;20231;-49
2021/11/28 05:32:15;;;;;;;6.40;5.80;;;;;;;;;;4993561;28;20658;-47
2021/11/28 05:34:41;;;;;;;13.20;6.20;;;;;;;;;;4993286;28;20173;-47
2021/11/28 05:37:07;;;;;;;11.43;5.78;;;;;;;;;;4993212;28;20572;-47
2021/11/28 05:39:33;;;;;;;11.02;5.85;;;;;;;;;;4993265;28;20655;-47
2021/11/28 05:41:59;;;;;;;10.60;7.10;;;;;;;;;;4992819;28;20196;-47
2021/11/28 05:44:25;;;;;;;10.52;6.35;;;;;;;;;;4993441;28;20448;-48
2021/11/28 05:46:51;;;;;;;12.70;6.40;;;;;;;;;;4993397;28;20191;-47
2021/11/28 05:49:17;;;;;;;11.30;6.03;;;;;;;;;;4992859;28;20625;-47
2021/11/28 05:51:43;;;;;;;7.10;6.05;;;;;;;;;;4992505;28;20662;-49
2021/11/28 05:54:09;;;;;;;9.70;5.90;;;;;;;;;;4993279;28;20199;-49
2021/11/28 05:56:36;;;;;;;11.85;5.90;;;;;;;;;;4993224;28;20512;-49
2021/11/28 05:59:02;;;;;;;7.75;6.47;;;;;;;;;;4993678;28;20177;-49
2021/11/28 06:01:28;;;;;;;9.20;6.07;;;;;;;;;;4993132;28;20665;-48
2021/11/28 06:03:54;;;;;;;7.53;5.70;;;;;;;;;;4993463;28;20191;-48
2021/11/28 06:06:20;;;;;;;9.55;5.78;;;;;;;;;;4994525;28;20802;-49
2021/11/28 06:08:45;;;;;;;8.37;5.50;;;;;;;;;;4993856;28;20216;-48
2021/11/28 06:11:11;;;;;;;12.10;6.10;;;;;;;;;;4993801;28;20758;-50
2021/11/28 06:13:37;;;;;;;7.07;5.27;;;;;;;;;;4993919;28;20405;-47
2021/11/28 06:16:05;;;;;;;7.38;5.60;;;;;;;;;;4993763;28;20814;-49
2021/11/28 06:18:31;;;;;;;7.78;5.30;;;;;;;;;;4993914;28;20161;-49
2021/11/28 06:20:57;;;;;;;7.55;5.38;;;;;;;;;;4993885;28;20186;-48
2021/11/28 06:23:23;;;;;;;8.20;4.93;;;;;;;;;;4993636;28;20699;-50
2021/11/28 06:25:49;;;;;;;10.00;5.75;;;;;;;;;;4993753;28;20467;-49
2021/11/28 06:28:15;;;;;;;6.33;4.83;;;;;;;;;;4994623;28;20169;-49
2021/11/28 06:30:41;;;;;;;7.50;5.17;;;;;;;;;;4993864;28;20416;-47
2021/11/28 06:33:07;;;;;;;7.20;5.30;;;;;;;;;;4994297;28;20396;-49
2021/11/28 06:35:33;;;;;;;8.50;5.30;;;;;;;;;;4994139;28;20404;-49
2021/11/28 06:37:59;;;;;;;6.90;5.25;;;;;;;;;;4993993;28;20406;-49
2021/11/28 06:40:25;;;;;;;10.60;4.67;;;;;;;;;;4993851;28;20196;-49
2021/11/28 06:42:51;;;;;;;5.33;4.83;;;;;;;;;;4994109;28;20404;-49
2021/11/28 06:45:17;;;;;;;8.43;5.03;;;;;;;;;;4994563;28;20981;-48
2021/11/28 06:47:43;;;;;;;5.80;4.90;;;;;;;;;;4993934;28;20446;-47
2021/11/28 06:50:09;;;;;;;5.40;5.00;;;;;;;;;;4994211;28;20186;-49
2021/11/28 06:52:35;;;;;;;6.57;5.70;;;;;;;;;;4993554;28;20423;-47
2021/11/28 06:55:01;;;;;;;6.22;5.20;;;;;;;;;;4994223;28;20169;-49
2021/11/28 06:57:27;;;;;;;6.63;5.77;;;;;;;;;;4994492;28;20253;-49
2021/11/28 06:59:53;;;;;;;5.93;5.32;;;;;;;;;;4993599;28;20417;-48
2021/11/28 07:02:19;;;;;;;5.68;5.07;;;;;;;;;;4995145;28;20169;-49
2021/11/28 07:04:45;;;;;;;8.82;4.63;;;;;;;;;;4997623;28;20205;-48
2021/11/28 07:07:12;;;;;;;6.00;5.32;;;;;;;;;;4997224;28;20307;-47
2021/11/28 07:09:38;;;;;;;6.88;5.35;;;;;;;;;;4997824;28;20169;-47
2021/11/28 07:12:04;;;;;;;8.52;5.57;;;;;;;;;;4997033;28;20193;-47
2021/11/28 07:14:30;;;;;;;7.65;5.35;;;;;;;;;;4996925;28;20173;-49
2021/11/28 07:16:56;;;;;;;9.23;6.23;;;;;;;;;;4997194;28;20235;-48
2021/11/28 07:19:22;;;;;;;11.13;7.13;;;;;;;;;;4997055;28;20435;-49
2021/11/28 07:21:49;;;;;;;11.57;6.72;;;;;;;;;;4996629;28;20185;-49
2021/11/28 07:24:15;;;;;;;7.80;6.20;;;;;;;;;;4996892;28;20629;-49
2021/11/28 07:26:41;;;;;;;7.30;6.53;;;;;;;;;;4996979;28;20168;-49
2021/11/28 07:29:07;;;;;;;6.47;5.88;;;;;;;;;;4997094;28;20219;-49
2021/11/28 07:31:33;;;;;;;9.88;5.75;;;;;;;;;;4996751;28;20189;-48
2021/11/28 07:33:59;;;;;;;7.10;5.87;;;;;;;;;;4997280;28;20227;-49
2021/11/28 07:36:25;;;;;;;8.33;5.63;;;;;;;;;;4996970;28;20496;-48
2021/11/28 07:38:51;;;;;;;7.43;5.70;;;;;;;;;;4989699;28;20419;-47
2021/11/28 07:41:17;;;;;;;12.63;5.77;;;;;;;;;;4996691;28;20447;-48
2021/11/28 07:43:43;;;;;;;10.73;7.55;;;;;;;;;;4996568;28;20449;-48
2021/11/28 07:46:09;;;;;;;6.60;5.57;;;;;;;;;;4996424;28;20197;-48
2021/11/28 07:48:36;;;;;;;7.07;5.85;;;;;;;;;;4996597;28;20432;-48
2021/11/28 07:51:02;;;;;;;11.23;8.00;;;;;;;;;;4996533;28;20625;-48
2021/11/28 07:53:29;;;;;;;12.73;8.73;;;;;;;;;;4996633;28;20192;-49
2021/11/28 07:55:55;;;;;;;8.52;5.88;;;;;;;;;;4996591;28;20471;-49
2021/11/28 07:58:21;;;;;;;9.10;8.20;;;;;;;;;;4996038;28;20204;-50
2021/11/28 08:00:47;;;;;;;10.85;8.32;;;;;;;;;;4995613;28;20420;-50
2021/11/28 08:03:15;;;;;;;19.53;10.87;;;;;;;;;;4996115;28;20601;-47
2021/11/28 08:05:41;;;;;;;14.68;10.38;;;;;;;;;;4995166;28;20460;-49
2021/11/28 08:08:07;;;;;;;17.80;9.87;;;;;;;;;;4993980;28;20191;-48
2021/11/28 08:10:33;;;;;;;9.20;6.85;;;;;;;;;;4994197;28;20412;-48
2021/11/28 08:12:59;;;;;;;10.15;6.78;;;;;;;;;;4994940;28;20161;-48
2021/11/28 08:15:25;;;;;;;9.75;7.63;;;;;;;;;;4995520;28;20169;-47
2021/11/28 08:17:51;;;;;;;12.53;6.93;;;;;;;;;;4995810;28;20264;-49
2021/11/28 08:20:18;;;;;;;12.93;9.15;;;;;;;;;;4995634;28;20420;-48
2021/11/28 08:22:45;;;;;;;9.98;7.90;;;;;;;;;;4995913;28;20625;-49
2021/11/28 08:25:12;;;;;;;11.55;7.55;;;;;;;;;;4995263;28;20283;-50
2021/11/28 08:27:38;;;;;;;10.90;6.57;;;;;;;;;;4994919;28;20172;-49
2021/11/28 08:30:11;;;;;;;8.73;7.10;;;;;;;;;;4995218;28;20192;-48
2021/11/28 08:32:38;;;;;;;8.25;6.70;;;;;;;;;;4995047;28;20397;-49
2021/11/28 08:35:04;;;;;;;8.85;7.05;;;;;;;;;;4995318;28;20237;-49
2021/11/28 08:37:30;;;;;;;12.70;6.95;;;;;;;;;;4995575;28;20351;-49
2021/11/28 08:39:56;;;;;;;10.40;6.70;;;;;;;;;;4995614;28;20209;-49
2021/11/28 08:42:23;;;;;;;8.70;6.72;;;;;;;;;;4995800;28;20400;-49
2021/11/28 08:44:49;;;;;;;8.05;6.20;;;;;;;;;;4995748;28;20572;-49
2021/11/28 08:47:15;;;;;;;8.80;6.30;;;;;;;;;;4996127;28;20165;-50
2021/11/28 08:49:42;;;;;;;8.52;6.07;;;;;;;;;;4995786;28;20523;-50
2021/11/28 08:52:08;;;;;;;8.93;5.80;;;;;;;;;;4994708;28;20165;-48
2021/11/28 08:54:34;;;;;;;6.72;5.95;;;;;;;;;;4994697;28;20629;-49
2021/11/28 08:57:00;;;;;;;9.93;5.88;;;;;;;;;;4995523;28;20259;-47
2021/11/28 08:59:28;;;;;;;11.35;6.55;;;;;;;;;;4995551;28;20183;-50
2021/11/28 09:01:54;;;;;;;8.45;6.57;;;;;;;;;;4995429;28;20197;-49
2021/11/28 09:04:20;;;;;;;8.52;6.97;;;;;;;;;;4996134;28;20204;-48
2021/11/28 09:06:46;;;;;;;9.57;6.27;;;;;;;;;;4997065;28;20173;-48
2021/11/28 09:09:12;;;;;;;8.20;6.80;;;;;;;;;;4996613;28;20408;-48
2021/11/28 09:11:38;;;;;;;11.00;7.10;;;;;;;;;;4996473;28;20358;-50
2021/11/28 09:14:05;;;;;;;16.67;7.93;;;;;;;;;;4996462;28;20408;-50
2021/11/28 09:16:31;;;;;;;11.90;7.50;;;;;;;;;;4996720;28;20412;-48
2021/11/28 09:19:04;;;;;;;8.32;6.65;;;;;;;;;;4996541;28;20169;-49
2021/11/28 09:21:30;;;;;;;11.07;6.40;;;;;;;;;;4996239;28;20196;-48
2021/11/28 09:26:42;;;;;;;12.60;8.00;;;;;;;;;;4996680;28;20184;-50
2021/11/28 09:29:07;;;;;;;8.65;6.75;;;;;;;;;;4995846;28;20173;-48
2021/11/28 09:31:33;;;;;;;11.73;6.00;;;;;;;;;;4996540;28;20277;-49
2021/11/28 09:34:01;;;;;;;9.60;7.20;;;;;;;;;;4996922;28;20471;-48
2021/11/28 09:36:29;;;;;;;17.48;7.68;;;;;;;;;;4996965;28;20440;-49
2021/11/28 09:38:55;;;;;;;10.38;7.22;;;;;;;;;;4996833;28;20175;-50
2021/11/28 09:41:23;;;;;;;8.57;6.72;;;;;;;;;;4996331;28;20220;-49
2021/11/28 09:43:51;;;;;;;9.65;7.20;;;;;;;;;;4996235;28;20173;-49
2021/11/28 09:46:21;;;;;;;15.07;7.28;;;;;;;;;;4996977;28;20177;-49
2021/11/28 09:48:47;;;;;;;8.70;6.90;;;;;;;;;;4996816;28;20176;-48
2021/11/28 09:51:14;;;;;;;8.50;6.50;;;;;;;;;;4996016;28;20196;-48
2021/11/28 09:53:41;;;;;;;9.60;6.85;;;;;;;;;;4996943;28;20637;-48
2021/11/28 09:56:08;;;;;;;7.10;6.30;;;;;;;;;;4996735;28;20200;-47
2021/11/28 09:58:34;;;;;;;8.00;6.60;;;;;;;;;;4997435;28;20170;-48
2021/11/28 10:01:00;;;;;;;11.50;7.20;;;;;;;;;;4997016;28;20551;-48
2021/11/28 10:03:27;;;;;;;8.10;6.20;;;;;;;;;;4996881;28;20412;-48
2021/11/28 10:05:53;;;;;;;8.07;7.15;;;;;;;;;;4997359;28;20274;-48
2021/11/28 10:08:23;;;;;;;7.90;6.70;;;;;;;;;;4997644;28;20169;-48
2021/11/28 10:11:00;;;;;;;9.23;7.37;;;;;;;;;;4978437;28;20496;-51
2021/11/28 10:13:26;;;;;;;9.03;7.03;;;;;;;;;;4996190;28;20408;-50
2021/11/28 10:15:52;;;;;;;9.47;7.37;;;;;;;;;;4995578;28;20406;-51
2021/11/28 10:18:18;;;;;;;8.20;6.70;;;;;;;;;;4995306;28;20417;-51
2021/11/28 10:20:45;;;;;;;8.47;7.57;;;;;;;;;;4994280;28;20485;-51
2021/11/28 10:23:11;;;;;;;9.83;6.87;;;;;;;;;;4993213;28;20416;-50
2021/11/28 10:25:38;;;;;;;15.17;8.17;;;;;;;;;;4992912;28;20460;-51
2021/11/28 10:28:15;;;;;;;8.60;6.80;;;;;;;;;;4991389;28;20923;-53
2021/11/28 10:30:43;;;;;;;9.50;8.37;;;;;;;;;;4991926;28;20428;-53
2021/11/28 10:33:12;;;;;;;9.80;8.47;;;;;;;;;;4992559;28;20471;-53
2021/11/28 10:35:39;;;;;;;13.17;8.33;;;;;;;;;;4992747;28;20408;-52
2021/11/28 10:38:13;;;;;;;10.73;7.80;;;;;;;;;;4996138;28;20413;-50
2021/11/28 10:40:44;;;;;;;10.13;9.10;;;;;;;;;;4995473;28;20453;-52
2021/11/28 10:43:14;;;;;;;9.90;8.20;;;;;;;;;;4995932;28;20475;-49
2021/11/28 10:45:48;;;;;;;14.10;10.10;;;;;;;;;;4994689;28;20485;-50
2021/11/28 10:48:15;;;;;;;15.00;11.80;;;;;;;;;;4993333;28;20405;-52
2021/11/28 10:50:42;;;;;;;13.80;10.03;;;;;;;;;;4995541;28;20394;-52
2021/11/28 10:53:21;;;;;;;15.53;11.60;;;;;;;;;;4996456;28;20836;-53
2021/11/28 10:55:47;;;;;;;15.13;10.83;;;;;;;;;;4996357;28;20401;-53
2021/11/28 10:58:15;;;;;;;17.00;11.50;;;;;;;;;;4996627;28;20477;-53
2021/11/28 11:01:01;;;;;;;17.03;11.17;;;;;;;;;;4996395;28;20425;-53
2021/11/28 11:03:31;;;;;;;16.37;11.27;;;;;;;;;;4997250;28;20408;-53
2021/11/28 11:06:16;;;;;;;17.03;10.57;;;;;;;;;;4996572;28;20456;-53
2021/11/28 11:08:43;;;;;;;17.20;11.40;;;;;;;;;;4997899;28;20876;-52
2021/11/28 11:11:13;;;;;;;19.23;11.20;;;;;;;;;;4999389;28;20506;-52
2021/11/28 11:14:08;;;;;;;14.27;9.93;;;;;;;;;;4999320;28;20436;-52
2021/11/28 11:16:34;;;;;;;14.70;11.00;;;;;;;;;;4981568;28;20404;-52
2021/11/28 11:19:19;;;;;;;16.27;10.73;;;;;;;;;;4996930;28;20392;-51
2021/11/28 11:22:03;;;;;;;14.60;11.40;;;;;;;;;;4996658;28;20498;-53
2021/11/28 11:24:29;;;;;;;14.80;10.80;;;;;;;;;;4994728;28;20450;-50
2021/11/28 11:27:04;;;;;;;17.70;11.47;;;;;;;;;;4994908;28;20906;-52
2021/11/28 11:29:30;;;;;;;18.03;12.30;;;;;;;;;;4994856;28;20456;-52
2021/11/28 11:32:02;;;;;;;16.77;11.63;;;;;;;;;;4994557;28;20430;-51
2021/11/28 11:34:32;;;;;;;15.23;11.43;;;;;;;;;;4994675;28;20412;-51
2021/11/28 11:37:12;;;;;;;15.50;10.73;;;;;;;;;;4994621;28;20456;-51
2021/11/28 11:39:37;;;;;;;14.83;9.67;;;;;;;;;;4994627;28;20912;-51
2021/11/28 11:42:04;;;;;;;18.03;11.50;;;;;;;;;;4994478;28;20432;-51
2021/11/28 11:44:30;;;;;;;11.50;9.73;;;;;;;;;;4994571;28;20446;-49
2021/11/28 11:46:57;;;;;;;17.47;10.40;;;;;;;;;;4994508;28;21220;-49
2021/11/28 11:49:25;;;;;;;14.40;9.93;;;;;;;;;;4993676;28;20564;-49
2021/11/28 11:51:51;;;;;;;14.67;9.60;;;;;;;;;;4994161;28;20429;-51
2021/11/28 11:54:21;;;;;;;16.60;10.47;;;;;;;;;;4994239;28;20508;-50
2021/11/28 11:56:47;;;;;;;15.27;10.27;;;;;;;;;;4994339;28;20970;-48
2021/11/28 11:59:24;;;;;;;14.70;10.30;;;;;;;;;;4994266;28;20443;-50
2021/11/28 12:02:01;;;;;;;15.30;11.13;;;;;;;;;;4993889;28;21003;-49
2021/11/28 12:04:36;;;;;;;15.70;10.40;;;;;;;;;;4994188;28;20785;-49
2021/11/28 12:07:02;;;;;;;14.77;11.03;;;;;;;;;;4994892;28;20401;-51
2021/11/28 12:09:30;;;;;;;18.43;11.40;;;;;;;;;;4994041;28;20405;-51
2021/11/28 12:12:06;;;;;;;14.77;11.57;;;;;;;;;;4993724;28;20432;-52
2021/11/28 12:14:33;;;;;;;17.97;12.23;;;;;;;;;;4994008;28;20403;-51
2021/11/28 12:16:59;;;;;;;16.60;11.87;;;;;;;;;;4993950;28;20954;-51
2021/11/28 12:19:41;;;;;;;18.30;11.70;;;;;;;;;;4993850;28;20760;-52
2021/11/28 12:22:27;;;;;;;20.33;13.40;;;;;;;;;;4993868;28;20483;-51
2021/11/28 12:24:53;;;;;;;19.20;13.00;;;;;;;;;;4993629;28;20456;-52
2021/11/28 12:27:38;;;;;;;21.00;13.73;;;;;;;;;;4993697;28;20412;-51
2021/11/28 12:30:23;;;;;;;20.27;13.20;;;;;;;;;;4993727;28;20495;-51
2021/11/28 12:32:52;;;;;;;17.70;12.40;;;;;;;;;;4993540;28;20401;-51
2021/11/28 12:35:36;;;;;;;21.50;12.13;;;;;;;;;;4993460;28;20535;-49
2021/11/28 12:38:02;;;;;;;20.00;12.00;;;;;;;;;;4993537;28;20854;-50
2021/11/28 12:40:29;;;;;;;19.23;11.20;;;;;;;;;;4993437;28;20331;-50
2021/11/28 12:42:56;;;;;;;20.63;11.93;;;;;;;;;;4993436;28;20920;-50
2021/11/28 12:45:35;;;;;;;18.52;11.48;;;;;;;;;;4993326;28;20715;-51
2021/11/28 12:48:06;;;;;;;17.00;11.00;;;;;;;;;;4993845;28;20254;-51
2021/11/28 12:50:48;;;;;;;23.27;13.30;;;;;;;;;;4993103;28;20679;-50
2021/11/28 12:53:25;;;;;;;18.85;11.65;;;;;;;;;;4993157;28;20592;-49
2021/11/28 12:56:09;;;;;;;19.67;12.07;;;;;;;;;;4993684;28;20230;-49
2021/11/28 12:58:35;;;;;;;18.20;12.98;;;;;;;;;;4993060;28;20699;-51
2021/11/28 13:01:01;;;;;;;21.27;13.30;;;;;;;;;;4992890;28;20259;-52
2021/11/28 13:03:27;;;;;;;24.53;13.57;;;;;;;;;;4992261;28;20574;-51
2021/11/28 13:05:57;;;;;;;20.48;13.32;;;;;;;;;;4992937;28;20458;-50
2021/11/28 13:08:23;;;;;;;21.65;12.73;;;;;;;;;;4993020;28;20169;-49
2021/11/28 13:10:56;;;;;;;19.03;12.97;;;;;;;;;;4992565;28;20729;-51
2021/11/28 13:13:26;;;;;;;19.67;12.45;;;;;;;;;;4992777;28;20417;-50
2021/11/28 13:15:52;;;;;;;20.63;14.48;;;;;;;;;;4992923;28;20166;-49
2021/11/28 13:18:24;;;;;;;17.97;13.43;;;;;;;;;;4992857;28;20256;-48
2021/11/28 13:20:50;;;;;;;18.83;12.43;;;;;;;;;;4992521;28;20431;-49
2021/11/28 13:23:17;;;;;;;23.03;14.67;;;;;;;;;;4992569;28;20408;-49
2021/11/28 13:25:48;;;;;;;19.00;14.43;;;;;;;;;;4992606;28;20951;-49
2021/11/28 13:28:19;;;;;;;21.40;13.60;;;;;;;;;;4992799;28;20472;-49
2021/11/28 13:31:09;;;;;;;24.40;13.90;;;;;;;;;;4992627;28;20192;-50
2021/11/28 13:33:36;;;;;;;18.42;14.00;;;;;;;;;;4982654;28;20181;-50
2021/11/28 13:36:02;;;;;;;20.38;13.38;;;;;;;;;;4992517;28;20746;-50
2021/11/28 13:38:29;;;;;;;20.10;13.50;;;;;;;;;;4989439;28;20188;-51
2021/11/28 13:41:10;;;;;;;17.60;12.63;;;;;;;;;;4972756;28;20426;-53
2021/11/28 13:43:38;;;;;;;20.80;13.63;;;;;;;;;;4971867;28;20766;-51
2021/11/28 13:46:05;;;;;;;17.33;13.13;;;;;;;;;;4972134;28;20908;-51
2021/11/28 13:48:40;;;;;;;22.40;13.40;;;;;;;;;;4972902;28;20418;-51
2021/11/28 13:51:06;;;;;;;29.00;16.77;;;;;;;;;;4972805;28;20433;-51
2021/11/28 13:53:32;;;;;;;24.03;16.80;;;;;;;;;;4954321;28;20492;-52
2021/11/28 13:55:58;;;;;;;22.50;13.27;;;;;;;;;;4971105;28;20415;-51
2021/11/28 13:58:24;;;;;;;17.50;12.40;;;;;;;;;;4971125;28;20415;-50
2021/11/28 14:00:50;;;;;;;19.43;14.70;;;;;;;;;;4971906;28;20438;-50
2021/11/28 14:03:16;;;;;;;19.03;12.00;;;;;;;;;;4971393;28;20630;-50
2021/11/28 14:05:43;;;;;;;19.40;12.27;;;;;;;;;;4972877;28;20483;-50
2021/11/28 14:08:09;;;;;;;21.03;13.23;;;;;;;;;;4972653;28;20544;-51
2021/11/28 14:10:36;;;;;;;17.83;12.18;;;;;;;;;;4972490;28;20936;-50
2021/11/28 14:13:02;;;;;;;19.67;11.20;;;;;;;;;;4976521;28;20224;-51
2021/11/28 14:15:29;;;;;;;25.30;12.98;;;;;;;;;;4976422;28;20542;-50
2021/11/28 14:18:01;;;;;;;22.45;11.80;;;;;;;;;;4959327;28;20320;-51
2021/11/28 14:20:29;;;;;;;20.27;12.20;;;;;;;;;;4976272;28;20691;-50
2021/11/28 14:22:55;;;;;;;21.60;13.50;;;;;;;;;;4976742;28;20546;-50
2021/11/28 14:25:24;;;;;;;21.10;13.45;;;;;;;;;;4976442;28;20190;-51
2021/11/28 14:28:09;;;;;;;18.27;12.70;;;;;;;;;;4976304;28;20192;-50
2021/11/28 14:30:36;;;;;;;19.35;13.77;;;;;;;;;;4976110;28;20537;-52
2021/11/28 14:33:04;;;;;;;25.15;14.75;;;;;;;;;;4976266;28;20551;-49
2021/11/28 14:35:30;;;;;;;20.80;13.32;;;;;;;;;;4976318;28;20240;-50
2021/11/28 14:38:11;;;;;;;21.65;15.18;;;;;;;;;;4976217;28;20201;-51
2021/11/28 14:40:37;;;;;;;26.10;14.77;;;;;;;;;;4975847;28;20198;-51
2021/11/28 14:43:05;;;;;;;24.75;15.75;;;;;;;;;;4976173;28;20244;-51
2021/11/28 14:45:31;;;;;;;23.77;15.30;;;;;;;;;;4976040;28;20197;-51
2021/11/28 14:48:30;;;;;;;21.55;13.60;;;;;;;;;;4976196;28;20178;-50